createdAt,value
2022-09-23T00:00:49.616Z,1.63
2022-09-23T00:03:16.637Z,1.90
2022-09-23T00:05:43.604Z,1.52
2022-09-23T00:08:11.756Z,1.60
2022-09-23T00:10:39.834Z,1.42
2022-09-23T00:13:07.153Z,1.40
2022-09-23T00:15:38.744Z,1.67
2022-09-23T00:18:05.489Z,1.48
2022-09-23T00:20:33.906Z,1.20
2022-09-23T00:23:01.442Z,1.08
2022-09-23T00:25:29.678Z,1.38
2022-09-23T00:27:56.732Z,1.13
2022-09-23T00:30:23.662Z,1.23
2022-09-23T00:32:50.355Z,1.48
2022-09-23T00:35:17.209Z,1.55
2022-09-23T00:37:43.769Z,1.20
2022-09-23T00:40:12.311Z,1.10
2022-09-23T00:42:46.428Z,0.80
2022-09-23T00:45:13.177Z,1.40
2022-09-23T00:47:53.796Z,1.50
2022-09-23T00:50:36.718Z,1.67
2022-09-23T00:53:06.670Z,1.20
2022-09-23T00:55:43.421Z,1.42
2022-09-23T00:58:12.933Z,1.60
2022-09-23T01:00:39.447Z,1.00
2022-09-23T01:03:07.065Z,1.25
2022-09-23T01:05:34.159Z,1.13
2022-09-23T01:08:02.950Z,0.90
2022-09-23T01:10:40.159Z,0.82
2022-09-23T01:13:27.122Z,1.15
2022-09-23T01:16:07.746Z,1.00
2022-09-23T01:18:43.604Z,0.90
2022-09-23T01:21:22.284Z,1.15
2022-09-23T01:24:24.393Z,1.30
2022-09-23T01:27:01.269Z,1.33
2022-09-23T01:29:46.799Z,0.90
2022-09-23T01:32:21.709Z,0.85
2022-09-23T01:35:10.767Z,0.88
2022-09-23T01:37:45.815Z,1.08
2022-09-23T01:40:18.386Z,1.50
2022-09-23T01:43:04.773Z,0.93
2022-09-23T01:45:43.490Z,1.00
2022-09-23T01:48:32.026Z,1.23
2022-09-23T01:51:16.625Z,1.08
2022-09-23T01:53:51.424Z,1.00
2022-09-23T01:56:25.750Z,1.25
2022-09-23T01:59:29.096Z,1.17
2022-09-23T02:02:06.730Z,0.90
2022-09-23T02:04:39.556Z,0.90
2022-09-23T02:07:52.748Z,1.30
2022-09-23T02:10:27.580Z,1.33
2022-09-23T02:12:57.847Z,1.05
2022-09-23T02:15:29.539Z,1.25
2022-09-23T02:18:01.885Z,1.20
2022-09-23T02:20:30.964Z,1.10
2022-09-23T02:23:01.652Z,1.10
2022-09-23T02:25:35.651Z,1.10
2022-09-23T02:28:19.293Z,1.38
2022-09-23T02:30:51.499Z,1.27
2022-09-23T02:33:28.141Z,1.00
2022-09-23T02:35:59.798Z,0.63
2022-09-23T02:38:31.960Z,1.30
2022-09-23T02:41:11.312Z,1.13
2022-09-23T02:44:06.777Z,1.05
2022-09-23T02:46:33.856Z,1.00
2022-09-23T02:49:04.906Z,1.70
2022-09-23T02:51:34.863Z,1.30
2022-09-23T02:54:03.023Z,1.80
2022-09-23T02:56:29.763Z,1.02
2022-09-23T02:58:57.028Z,1.45
2022-09-23T03:01:56.383Z,1.15
2022-09-23T03:05:00.715Z,1.02
2022-09-23T03:07:48.512Z,1.00
2022-09-23T03:10:53.699Z,1.38
2022-09-23T03:13:31.851Z,0.77
2022-09-23T03:16:05.147Z,1.45
2022-09-23T03:18:45.034Z,1.00
2022-09-23T03:21:35.249Z,1.30
2022-09-23T03:24:05.023Z,1.25
2022-09-23T03:26:34.382Z,1.20
2022-09-23T03:29:05.875Z,1.20
2022-09-23T03:31:33.654Z,1.48
2022-09-23T03:34:02.754Z,1.17
2022-09-23T03:36:53.587Z,1.20
2022-09-23T03:39:41.178Z,1.08
2022-09-23T03:42:16.982Z,1.25
2022-09-23T03:44:45.608Z,1.30
2022-09-23T03:47:14.605Z,1.13
2022-09-23T03:49:43.554Z,1.40
2022-09-23T03:52:11.105Z,1.17
2022-09-23T03:54:37.686Z,1.10
2022-09-23T03:57:04.480Z,1.13
2022-09-23T03:59:31.265Z,1.45
2022-09-23T04:01:59.533Z,1.35
2022-09-23T04:04:27.685Z,1.70
2022-09-23T04:06:55.285Z,1.20
2022-09-23T04:09:22.668Z,1.48
2022-09-23T04:11:50.648Z,1.27
2022-09-23T04:14:18.278Z,1.08
2022-09-23T04:16:45.627Z,1.17
2022-09-23T04:19:13.668Z,1.30
2022-09-23T04:21:40.947Z,1.10
2022-09-23T04:24:07.792Z,1.15
2022-09-23T04:26:34.883Z,1.23
2022-09-23T04:29:01.767Z,1.55
2022-09-23T04:31:28.895Z,1.48
2022-09-23T04:33:56.025Z,1.65
2022-09-23T04:36:22.708Z,1.45
2022-09-23T04:38:49.592Z,1.40
2022-09-23T04:41:16.915Z,1.45
2022-09-23T04:43:43.827Z,1.42
2022-09-23T04:46:13.023Z,1.30
2022-09-23T04:48:41.523Z,1.45
2022-09-23T04:51:14.148Z,1.52
2022-09-23T04:53:42.199Z,1.73
2022-09-23T04:56:14.719Z,1.52
2022-09-23T04:58:41.326Z,1.67
2022-09-23T05:01:16.678Z,1.58
2022-09-23T05:03:44.322Z,1.38
2022-09-23T05:06:15.183Z,1.50
2022-09-23T05:08:46.394Z,1.85
2022-09-23T05:11:13.012Z,1.65
2022-09-23T05:13:39.568Z,1.75
2022-09-23T05:16:08.339Z,1.90
2022-09-23T05:18:35.720Z,1.88
2022-09-23T05:21:03.342Z,2.80
2022-09-23T05:23:30.146Z,3.13
2022-09-23T05:25:59.133Z,3.78
2022-09-23T05:28:31.292Z,4.78
2022-09-23T05:31:09.584Z,4.75
2022-09-23T05:33:37.062Z,4.85
2022-09-23T05:36:04.130Z,4.80
2022-09-23T05:38:31.931Z,5.68
2022-09-23T05:40:59.637Z,4.60
2022-09-23T05:43:26.511Z,5.10
2022-09-23T05:46:05.880Z,5.70
2022-09-23T05:48:35.729Z,5.07
2022-09-23T05:51:02.829Z,4.82
2022-09-23T05:53:30.109Z,4.05
2022-09-23T05:55:57.398Z,3.92
2022-09-23T05:58:24.659Z,4.00
2022-09-23T06:00:51.379Z,4.35
2022-09-23T06:03:20.187Z,4.20
2022-09-23T06:05:46.940Z,4.10
2022-09-23T06:08:13.603Z,4.65
2022-09-23T06:10:47.874Z,3.63
2022-09-23T06:13:16.307Z,3.72
2022-09-23T06:15:44.516Z,3.60
2022-09-23T06:18:12.161Z,3.50
2022-09-23T06:20:39.069Z,3.22
2022-09-23T06:23:10.676Z,2.53
2022-09-23T06:25:40.641Z,2.50
2022-09-23T06:28:12.144Z,3.65
2022-09-23T06:30:39.956Z,3.35
2022-09-23T06:33:06.596Z,2.47
2022-09-23T06:35:33.319Z,2.80
2022-09-23T06:38:03.258Z,2.50
2022-09-23T06:40:29.908Z,2.80
2022-09-23T06:43:01.396Z,2.45
2022-09-23T06:47:56.366Z,1.95
2022-09-23T06:50:26.535Z,2.55
2022-09-23T06:52:56.131Z,2.20
2022-09-23T06:55:27.824Z,2.00
2022-09-23T06:57:54.928Z,2.10
2022-09-23T07:00:21.483Z,1.75
2022-09-23T07:02:48.804Z,1.70
2022-09-23T07:05:18.347Z,2.20
2022-09-23T07:07:45.131Z,2.35
2022-09-23T07:10:12.337Z,1.55
2022-09-23T07:12:38.955Z,2.47
2022-09-23T07:15:05.855Z,2.78
2022-09-23T07:17:32.512Z,2.53
2022-09-23T07:19:59.432Z,2.78
2022-09-23T07:22:26.508Z,2.15
2022-09-23T07:24:56.991Z,2.58
2022-09-23T07:27:27.533Z,2.70
2022-09-23T07:29:55.046Z,2.70
2022-09-23T07:32:22.841Z,3.17
2022-09-23T07:34:49.640Z,3.05
2022-09-23T07:37:17.240Z,2.70
2022-09-23T07:39:44.884Z,3.15
2022-09-23T07:42:14.303Z,2.85
2022-09-23T07:44:44.031Z,2.50
2022-09-23T07:47:10.982Z,2.78
2022-09-23T07:49:38.424Z,2.53
2022-09-23T07:52:05.261Z,2.17
2022-09-23T07:54:32.190Z,2.47
2022-09-23T07:56:59.210Z,1.88
2022-09-23T07:59:27.034Z,1.45
2022-09-23T08:01:54.260Z,1.60
2022-09-23T08:04:23.712Z,1.52
2022-09-23T08:06:54.079Z,1.70
2022-09-23T08:09:22.947Z,1.40
2022-09-23T08:11:50.714Z,1.40
2022-09-23T08:14:18.465Z,1.15
2022-09-23T08:16:45.876Z,1.45
2022-09-23T08:19:12.968Z,1.15
2022-09-23T08:21:40.377Z,1.45
2022-09-23T08:24:11.722Z,1.35
2022-09-23T08:29:05.407Z,1.00
2022-09-23T08:31:32.245Z,0.93
2022-09-23T08:33:59.120Z,1.10
2022-09-23T08:36:26.217Z,1.20
2022-09-23T08:38:53.044Z,1.27
2022-09-23T08:41:58.443Z,0.82
2022-09-23T08:44:30.347Z,0.88
2022-09-23T08:47:17.114Z,1.25
2022-09-23T08:50:00.812Z,1.30
2022-09-23T08:52:39.500Z,0.77
2022-09-23T08:55:09.421Z,0.90
2022-09-23T08:58:26.994Z,1.40
2022-09-23T09:00:59.636Z,1.20
2022-09-23T09:03:35.680Z,0.82
2022-09-23T09:06:03.186Z,1.10
2022-09-23T09:08:33.614Z,1.25
2022-09-23T09:11:00.465Z,0.90
2022-09-23T09:13:44.887Z,1.02
2022-09-23T09:16:55.490Z,1.27
2022-09-23T09:19:21.653Z,1.20
2022-09-23T09:21:53.952Z,1.00
2022-09-23T09:24:35.012Z,1.13
2022-09-23T09:27:10.570Z,0.90
2022-09-23T09:29:40.979Z,1.05
2022-09-23T09:32:20.237Z,1.02
2022-09-23T09:34:54.714Z,1.02
2022-09-23T09:37:31.727Z,1.08
2022-09-23T09:39:58.551Z,1.00
2022-09-23T09:42:29.862Z,1.27
2022-09-23T09:47:46.249Z,1.20
2022-09-23T09:50:49.185Z,1.30
2022-09-23T09:53:35.820Z,1.10
2022-09-23T09:56:05.738Z,1.00
2022-09-23T09:58:44.002Z,1.20
2022-09-23T10:01:23.768Z,1.20
2022-09-23T10:03:55.545Z,0.98
2022-09-23T10:06:27.585Z,0.95
2022-09-23T10:09:17.139Z,0.77
2022-09-23T10:12:02.721Z,0.80
2022-09-23T10:14:30.150Z,1.02
2022-09-23T10:17:05.716Z,1.10
2022-09-23T10:19:33.026Z,0.98
2022-09-23T10:22:04.820Z,1.00
2022-09-23T10:24:35.613Z,1.08
2022-09-23T10:27:04.468Z,1.20
2022-09-23T10:29:41.915Z,1.15
2022-09-23T10:32:27.022Z,0.93
2022-09-23T10:35:02.753Z,1.17
2022-09-23T10:37:41.047Z,1.08
2022-09-23T10:40:41.317Z,1.15
2022-09-23T10:43:48.380Z,0.80
2022-09-23T10:46:38.884Z,0.82
2022-09-23T10:49:36.647Z,0.93
2022-09-23T10:52:32.109Z,1.77
2022-09-23T10:55:20.056Z,1.33
2022-09-23T10:57:46.562Z,2.60
2022-09-23T11:00:14.649Z,0.90
2022-09-23T11:02:47.696Z,2.15
2022-09-23T11:05:30.572Z,1.55
2022-09-23T11:08:09.284Z,1.45
2022-09-23T11:10:48.624Z,0.70
2022-09-23T11:13:40.088Z,0.93
2022-09-23T11:16:21.754Z,0.98
2022-09-23T11:19:16.190Z,1.38
2022-09-23T11:21:49.326Z,0.75
2022-09-23T11:24:48.883Z,0.50
2022-09-23T11:27:45.428Z,0.68
2022-09-23T11:30:14.158Z,0.60
2022-09-23T11:35:48.080Z,0.68
2022-09-23T11:38:19.056Z,0.90
2022-09-23T11:40:48.220Z,0.70
2022-09-23T11:43:23.604Z,0.77
2022-09-23T11:46:29.099Z,0.57
2022-09-23T11:49:09.793Z,0.50
2022-09-23T11:51:49.393Z,0.55
2022-09-23T11:54:22.998Z,0.70
2022-09-23T11:56:54.904Z,0.60
2022-09-23T11:59:52.090Z,0.68
2022-09-23T12:02:31.130Z,0.85
2022-09-23T12:05:03.258Z,0.70
2022-09-23T12:07:59.810Z,0.68
2022-09-23T12:10:38.643Z,0.60
2022-09-23T12:13:10.244Z,0.55
2022-09-23T12:15:37.294Z,0.63
2022-09-23T12:18:10.635Z,0.40
2022-09-23T12:20:49.579Z,0.50
2022-09-23T12:23:16.082Z,0.55
2022-09-23T12:25:46.992Z,0.43
2022-09-23T12:30:47.774Z,0.43
2022-09-23T12:33:30.028Z,0.43
2022-09-23T12:36:04.961Z,0.40
2022-09-23T12:39:07.497Z,0.50
2022-09-23T12:41:40.174Z,0.50
2022-09-23T12:44:31.643Z,0.50
2022-09-23T12:47:25.549Z,0.40
2022-09-23T12:49:56.657Z,0.60
2022-09-23T12:57:33.908Z,0.80
2022-09-23T13:00:06.574Z,0.40
2022-09-23T13:02:43.768Z,0.82
2022-09-23T13:05:28.899Z,0.82
2022-09-23T13:08:01.599Z,0.70
2022-09-23T13:10:32.765Z,0.55
2022-09-23T13:15:34.240Z,0.60
2022-09-23T13:18:19.219Z,0.52
2022-09-23T13:20:47.039Z,0.70
2022-09-23T13:23:24.851Z,0.60
2022-09-23T13:25:57.395Z,0.60
2022-09-23T13:28:31.382Z,0.52
2022-09-23T13:30:58.514Z,0.80
2022-09-23T13:33:27.503Z,0.55
2022-09-23T13:35:58.710Z,1.02
2022-09-23T13:41:03.528Z,0.70
2022-09-23T13:43:58.650Z,0.68
2022-09-23T13:46:30.471Z,0.50
2022-09-23T13:48:57.276Z,0.80
2022-09-23T13:51:26.775Z,0.55
2022-09-23T13:53:58.527Z,0.47
2022-09-23T13:56:27.794Z,0.57
2022-09-23T13:58:56.702Z,0.50
2022-09-23T14:01:31.896Z,0.43
2022-09-23T14:03:59.136Z,0.50
2022-09-23T14:06:29.485Z,0.40
2022-09-23T14:08:57.385Z,0.40
2022-09-23T14:11:29.942Z,0.40
2022-09-23T14:13:57.948Z,0.50
2022-09-23T14:16:26.750Z,0.43
2022-09-23T14:18:57.633Z,0.50
2022-09-23T14:21:35.508Z,0.60
2022-09-23T14:24:15.066Z,0.50
2022-09-23T14:26:48.476Z,0.45
2022-09-23T14:29:21.144Z,0.40
2022-09-23T14:32:07.396Z,0.32
2022-09-23T14:34:50.546Z,0.73
2022-09-23T14:37:49.046Z,0.50
2022-09-23T14:40:20.842Z,0.60
2022-09-23T14:43:00.258Z,0.70
2022-09-23T14:45:31.629Z,0.80
2022-09-23T14:48:05.783Z,0.70
2022-09-23T14:50:47.554Z,0.70
2022-09-23T14:53:18.451Z,0.68
2022-09-23T14:55:46.460Z,0.77
2022-09-23T14:58:16.620Z,0.80
2022-09-23T15:01:00.487Z,0.70
2022-09-23T15:03:31.801Z,0.52
2022-09-23T15:08:35.519Z,0.68
2022-09-23T15:11:08.203Z,0.50
2022-09-23T15:13:39.301Z,0.55
2022-09-23T15:16:06.571Z,0.70
2022-09-23T15:18:37.958Z,0.82
2022-09-23T15:23:44.777Z,0.70
2022-09-23T15:26:18.621Z,0.40
2022-09-23T15:28:45.572Z,0.50
2022-09-23T15:31:17.005Z,0.40
2022-09-23T15:33:50.900Z,0.50
2022-09-23T15:36:27.908Z,0.60
2022-09-23T15:39:05.645Z,0.40
2022-09-23T15:41:33.338Z,0.40
2022-09-23T15:44:05.384Z,0.68
2022-09-23T15:46:33.693Z,0.82
2022-09-23T15:49:05.869Z,0.50
2022-09-23T15:51:32.454Z,0.57
2022-09-23T15:53:59.016Z,0.57
2022-09-23T15:56:27.162Z,0.73
2022-09-23T15:58:53.705Z,0.30
2022-09-23T16:01:23.001Z,0.30
2022-09-23T16:03:49.551Z,0.70
2022-09-23T16:06:16.200Z,0.52
2022-09-23T16:08:42.717Z,0.60
2022-09-23T16:11:18.936Z,0.63
2022-09-23T16:13:45.865Z,0.85
2022-09-23T16:16:13.087Z,0.40
2022-09-23T16:18:42.277Z,0.60
2022-09-23T16:21:12.132Z,0.40
2022-09-23T16:23:43.924Z,0.50
2022-09-23T16:26:10.523Z,0.70
2022-09-23T16:28:37.069Z,0.70
2022-09-23T16:31:03.792Z,0.60
2022-09-23T16:33:30.522Z,0.73
2022-09-23T16:35:57.295Z,0.50
2022-09-23T16:38:24.116Z,0.70
2022-09-23T16:40:50.828Z,0.52
2022-09-23T16:43:17.499Z,0.65
2022-09-23T16:45:45.977Z,0.65
2022-09-23T16:48:12.626Z,0.68
2022-09-23T16:50:40.312Z,0.77
2022-09-23T16:53:06.816Z,0.63
2022-09-23T16:55:33.409Z,0.45
2022-09-23T16:57:59.962Z,0.63
2022-09-23T17:00:45.150Z,0.80
2022-09-23T17:03:31.316Z,0.40
2022-09-23T17:05:58.173Z,0.75
2022-09-23T17:08:24.757Z,0.63
2022-09-23T17:11:00.865Z,0.90
2022-09-23T17:13:29.548Z,1.05
2022-09-23T17:15:56.303Z,0.63
2022-09-23T17:18:23.050Z,0.65
2022-09-23T17:20:57.781Z,0.90
2022-09-23T17:23:26.368Z,1.20
2022-09-23T17:25:53.080Z,0.90
2022-09-23T17:28:20.080Z,0.82
2022-09-23T17:30:46.665Z,1.30
2022-09-23T17:33:13.760Z,1.40
2022-09-23T17:35:40.858Z,1.95
2022-09-23T17:38:07.453Z,1.25
2022-09-23T17:40:38.930Z,0.80
2022-09-23T17:43:05.553Z,0.73
2022-09-23T17:45:32.198Z,0.88
2022-09-23T17:47:58.835Z,0.85
2022-09-23T17:50:25.353Z,0.77
2022-09-23T17:52:51.946Z,0.80
2022-09-23T17:55:19.183Z,1.00
2022-09-23T17:57:50.713Z,0.60
2022-09-23T18:00:17.374Z,1.00
2022-09-23T18:02:43.959Z,1.02
2022-09-23T18:05:10.512Z,0.90
2022-09-23T18:07:37.088Z,0.85
2022-09-23T18:10:03.861Z,1.10
2022-09-23T18:12:30.919Z,0.75
2022-09-23T18:14:57.446Z,1.00
2022-09-23T18:17:24.031Z,1.30
2022-09-23T18:19:50.646Z,1.08
2022-09-23T18:22:17.227Z,1.00
2022-09-23T18:24:44.015Z,1.02
2022-09-23T18:27:10.628Z,0.90
2022-09-23T18:29:37.190Z,0.65
2022-09-23T18:32:04.072Z,0.90
2022-09-23T18:34:30.713Z,1.40
2022-09-23T18:36:57.286Z,1.20
2022-09-23T18:39:23.936Z,0.73
2022-09-23T18:41:50.533Z,0.90
2022-09-23T18:44:17.824Z,1.00
2022-09-23T18:46:44.859Z,1.20
2022-09-23T18:49:30.135Z,1.15
2022-09-23T18:51:58.144Z,1.20
2022-09-23T18:54:27.658Z,1.08
2022-09-23T18:56:54.857Z,1.00
2022-09-23T18:59:25.901Z,1.75
2022-09-23T19:01:55.546Z,1.58
2022-09-23T19:04:23.663Z,1.00
2022-09-23T19:06:50.408Z,1.33
2022-09-23T19:09:17.742Z,1.35
2022-09-23T19:11:44.453Z,1.40
2022-09-23T19:14:11.811Z,1.88
2022-09-23T19:16:39.947Z,1.50
2022-09-23T19:19:06.882Z,1.77
2022-09-23T19:21:34.294Z,1.98
2022-09-23T19:24:03.717Z,1.30
2022-09-23T19:26:33.952Z,1.73
2022-09-23T19:29:02.303Z,1.60
2022-09-23T19:31:31.474Z,1.60
2022-09-23T19:34:01.189Z,1.85
2022-09-23T19:36:38.766Z,2.20
2022-09-23T19:39:07.990Z,2.25
2022-09-23T19:41:38.058Z,2.95
2022-09-23T19:44:07.484Z,2.13
2022-09-23T19:46:38.895Z,2.00
2022-09-23T19:49:06.868Z,1.88
2022-09-23T19:51:34.162Z,1.65
2022-09-23T19:54:02.036Z,1.60
2022-09-23T19:56:32.378Z,2.00
2022-09-23T19:58:59.756Z,1.77
2022-09-23T20:01:27.872Z,2.05
2022-09-23T20:03:54.514Z,2.50
2022-09-23T20:06:21.857Z,2.30
2022-09-23T20:08:49.200Z,2.58
2022-09-23T20:11:27.558Z,2.22
2022-09-23T20:14:00.812Z,2.10
2022-09-23T20:16:33.289Z,1.75
2022-09-23T20:19:00.737Z,1.88
2022-09-23T20:21:29.223Z,3.15
2022-09-23T20:23:56.364Z,3.20
2022-09-23T20:26:41.417Z,4.25
2022-09-23T20:29:08.988Z,3.88
2022-09-23T20:31:35.799Z,3.17
2022-09-23T20:34:05.716Z,2.72
2022-09-23T20:36:33.289Z,2.88
2022-09-23T20:39:01.994Z,2.30
2022-09-23T20:41:29.926Z,2.13
2022-09-23T20:43:59.469Z,2.67
2022-09-23T20:46:29.349Z,2.60
2022-09-23T20:48:57.074Z,2.40
2022-09-23T20:51:24.785Z,2.28
2022-09-23T20:53:52.880Z,2.15
2022-09-23T20:56:20.602Z,2.40
2022-09-23T20:58:48.561Z,2.60
2022-09-23T21:01:15.682Z,2.92
2022-09-23T21:03:44.651Z,2.90
2022-09-23T21:06:13.903Z,2.95
2022-09-23T21:08:41.308Z,2.30
2022-09-23T21:11:11.110Z,2.85
2022-09-23T21:13:37.919Z,2.80
2022-09-23T21:16:08.027Z,2.65
2022-09-23T21:18:38.001Z,3.25
2022-09-23T21:21:05.783Z,2.95
2022-09-23T21:23:38.034Z,2.30
2022-09-23T21:26:11.706Z,4.10
2022-09-23T21:28:40.020Z,3.35
2022-09-23T21:31:13.172Z,2.70
2022-09-23T21:33:39.810Z,2.00
2022-09-23T21:36:07.204Z,1.90
2022-09-23T21:38:37.229Z,2.17
2022-09-23T21:41:06.678Z,2.42
2022-09-23T21:43:35.133Z,2.25
2022-09-23T21:46:04.231Z,2.45
2022-09-23T21:48:32.569Z,2.67
2022-09-23T21:51:05.079Z,2.92
2022-09-23T21:53:32.939Z,2.85
2022-09-23T21:56:28.676Z,2.80
2022-09-23T21:58:56.758Z,2.38
2022-09-23T22:01:28.497Z,2.30
2022-09-23T22:03:56.873Z,2.55
2022-09-23T22:06:28.062Z,3.00
2022-09-23T22:09:00.166Z,2.28
2022-09-23T22:11:50.352Z,2.92
2022-09-23T22:14:19.021Z,2.40
2022-09-23T22:16:45.775Z,2.10
2022-09-23T22:19:13.709Z,1.98
2022-09-23T22:21:42.308Z,2.42
2022-09-23T22:24:10.559Z,2.35
2022-09-23T22:26:46.210Z,2.30
2022-09-23T22:29:34.520Z,2.20
2022-09-23T22:32:21.331Z,2.08
2022-09-23T22:34:52.600Z,2.03
2022-09-23T22:37:25.574Z,2.50
2022-09-23T22:39:52.260Z,1.95
2022-09-23T22:42:21.239Z,2.20
2022-09-23T22:44:48.848Z,2.35
2022-09-23T22:47:15.525Z,2.15
2022-09-23T22:49:42.915Z,3.00
2022-09-23T22:52:11.262Z,2.47
2022-09-23T22:54:37.981Z,3.60
2022-09-23T22:57:05.869Z,3.92
2022-09-23T22:59:32.452Z,2.92
2022-09-23T23:02:02.975Z,3.40
2022-09-23T23:04:30.119Z,2.88
2022-09-23T23:06:57.319Z,2.50
2022-09-23T23:09:23.852Z,3.30
2022-09-23T23:11:50.375Z,3.50
2022-09-23T23:14:18.258Z,2.83
2022-09-23T23:16:46.193Z,3.33
2022-09-23T23:19:14.785Z,3.08
2022-09-23T23:21:44.898Z,3.50
2022-09-23T23:24:20.306Z,3.40
2022-09-23T23:26:46.986Z,3.50
2022-09-23T23:29:16.062Z,2.70
2022-09-23T23:31:43.042Z,2.78
2022-09-23T23:34:16.226Z,3.08
2022-09-23T23:36:43.635Z,2.90
2022-09-23T23:39:10.675Z,2.97
2022-09-23T23:41:37.926Z,2.63
2022-09-23T23:44:05.443Z,2.72
2022-09-23T23:46:32.661Z,2.42
2022-09-23T23:49:00.186Z,2.78
2022-09-23T23:51:27.273Z,2.70
2022-09-23T23:53:54.848Z,2.97
2022-09-23T23:56:23.293Z,2.40
2022-09-23T23:59:00.161Z,2.45
